Time;durP1;ratioP1;P1;durP2;ratioP2;P2;SDS_P1;SDS_P2;PMS_P1;PMS_P2;Temp;Humidity;BMP_temperature;BMP_pressure;BME280_temperature;BME280_humidity;BME280_pressure;Samples;Min_cycle;Max_cycle;Signal;HPM_P1;HPM_P2
2022/01/26 00:00:18;;;;;;;80.41;37.45;;;;;;;;;;358275;147;857353;-59
2022/01/26 00:06:10;;;;;;;;;;;;;;;;;;351620;151;856578;-57
2022/01/26 00:07:09;;;;;;;74.87;34.23;;;;;;;;;;348326;152;857126;-58
2022/01/26 00:08:10;;;;;;;87.81;35.32;;;;;;;;;;355665;147;857431;-58
2022/01/26 00:09:12;;;;;;;85.69;37.23;;;;;;;;;;356629;148;865009;-58
2022/01/26 00:10:15;;;;;;;79.12;35.47;;;;;;;;;;355937;147;868426;-58
2022/01/26 00:11:17;;;;;;;84.73;37.87;;;;;;;;;;355722;148;857409;-58
2022/01/26 00:12:18;;;;;;;83.94;37.89;;;;;;;;;;356808;149;864139;-58
2022/01/26 00:13:20;;;;;;;81.84;35.82;;;;;;;;;;356355;149;860986;-58
2022/01/26 00:14:21;;;;;;;84.64;37.41;;;;;;;;;;356459;148;857863;-58
2022/01/26 00:15:23;;;;;;;78.73;35.42;;;;;;;;;;357934;148;864942;-58
2022/01/26 00:16:28;;;;;;;78.65;36.73;;;;;;;;;;357093;147;859156;-58
2022/01/26 00:17:29;;;;;;;84.88;36.61;;;;;;;;;;357209;148;856213;-58
2022/01/26 00:18:34;;;;;;;76.25;36.40;;;;;;;;;;357756;148;858958;-58
2022/01/26 00:19:49;;;;;;;84.97;38.83;;;;;;;;;;356608;147;857171;-58
2022/01/26 00:20:44;;;;;;;83.80;37.94;;;;;;;;;;354361;147;858979;-58
2022/01/26 00:21:49;;;;;;;83.95;37.17;;;;;;;;;;357544;148;865808;-58
2022/01/26 00:24:09;;;;;;;81.06;38.27;;;;;;;;;;357544;148;858121;-58
2022/01/26 00:25:20;;;;;;;84.73;36.98;;;;;;;;;;356473;149;865069;-58
2022/01/26 00:26:07;;;;;;;86.08;38.28;;;;;;;;;;354792;148;859276;-58
2022/01/26 00:27:50;;;;;;;82.51;38.01;;;;;;;;;;355701;148;859578;-58
2022/01/26 00:29:36;;;;;;;84.73;37.23;;;;;;;;;;356386;148;856381;-59
2022/01/26 00:39:30;;;;;;;81.53;36.74;;;;;;;;;;356140;150;864458;-57
2022/01/26 00:40:43;;;;;;;80.77;37.89;;;;;;;;;;356515;148;859734;-58
2022/01/26 00:41:40;;;;;;;84.48;38.02;;;;;;;;;;355049;147;857737;-57
2022/01/26 00:42:45;;;;;;;86.21;38.01;;;;;;;;;;356839;147;858373;-59
2022/01/26 00:43:50;;;;;;;87.66;38.02;;;;;;;;;;356248;148;857147;-58
2022/01/26 00:44:50;;;;;;;79.88;35.88;;;;;;;;;;358867;147;857662;-58
2022/01/26 00:45:56;;;;;;;80.36;37.59;;;;;;;;;;358669;147;860641;-57
2022/01/26 00:46:55;;;;;;;86.69;37.97;;;;;;;;;;357108;147;857183;-57
2022/01/26 00:47:57;;;;;;;85.79;37.74;;;;;;;;;;356990;147;865137;-55
2022/01/26 00:48:59;;;;;;;91.88;39.21;;;;;;;;;;356230;148;865083;-57
2022/01/26 00:50:05;;;;;;;84.26;36.64;;;;;;;;;;357743;148;859903;-56
2022/01/26 00:51:05;;;;;;;80.57;35.26;;;;;;;;;;356923;147;865058;-57
2022/01/26 00:52:11;;;;;;;83.78;37.04;;;;;;;;;;357385;148;865179;-57
2022/01/26 00:53:10;;;;;;;87.32;37.76;;;;;;;;;;357802;147;857295;-56
2022/01/26 00:54:12;;;;;;;85.33;38.24;;;;;;;;;;358241;147;860650;-56
2022/01/26 00:55:14;;;;;;;83.59;37.46;;;;;;;;;;355574;147;865098;-58
2022/01/26 00:56:17;;;;;;;82.54;36.08;;;;;;;;;;356333;148;857641;-58
2022/01/26 00:57:18;;;;;;;85.56;37.87;;;;;;;;;;357150;149;856926;-57
2022/01/26 00:58:20;;;;;;;79.13;37.61;;;;;;;;;;357596;148;864814;-58
2022/01/26 00:59:22;;;;;;;81.80;37.03;;;;;;;;;;355487;147;865252;-58
2022/01/26 01:00:25;;;;;;;86.03;35.79;;;;;;;;;;351888;149;863285;-58
2022/01/26 01:01:27;;;;;;;81.84;36.58;;;;;;;;;;346189;153;857110;-57
2022/01/26 01:02:30;;;;;;;82.85;38.23;;;;;;;;;;347578;153;858121;-57
2022/01/26 01:03:34;;;;;;;82.59;38.39;;;;;;;;;;343859;154;856333;-57
2022/01/26 01:04:36;;;;;;;78.17;37.63;;;;;;;;;;343943;154;858524;-57
2022/01/26 01:06:01;;;;;;;82.04;36.80;;;;;;;;;;343152;154;866818;-57
2022/01/26 01:07:00;;;;;;;86.24;36.61;;;;;;;;;;338203;155;866710;-57
2022/01/26 01:08:11;;;;;;;88.40;37.72;;;;;;;;;;341996;154;857817;-57
2022/01/26 01:09:06;;;;;;;80.52;37.54;;;;;;;;;;346462;151;858261;-58
2022/01/26 01:10:08;;;;;;;88.00;38.21;;;;;;;;;;342359;155;857442;-58
2022/01/26 01:11:10;;;;;;;89.01;39.46;;;;;;;;;;349415;152;858726;-57
2022/01/26 01:12:12;;;;;;;81.31;37.70;;;;;;;;;;347520;153;866761;-57
2022/01/26 01:13:17;;;;;;;76.97;36.24;;;;;;;;;;346252;152;857420;-58
2022/01/26 01:14:17;;;;;;;86.21;38.60;;;;;;;;;;341025;155;859079;-57
2022/01/26 01:15:19;;;;;;;86.57;39.14;;;;;;;;;;338277;155;864165;-58
2022/01/26 01:16:22;;;;;;;79.16;37.16;;;;;;;;;;340227;155;865717;-57
2022/01/26 01:17:25;;;;;;;82.44;37.09;;;;;;;;;;346539;153;859904;-58
2022/01/26 01:19:43;;;;;;;92.07;39.35;;;;;;;;;;346532;153;858213;-58
2022/01/26 01:21:04;;;;;;;96.03;40.54;;;;;;;;;;343810;153;858563;-58
2022/01/26 01:22:20;;;;;;;92.49;39.68;;;;;;;;;;341738;154;857693;-57
2022/01/26 01:26:57;;;;;;;85.86;38.96;;;;;;;;;;345306;153;857302;-56
2022/01/26 01:28:00;;;;;;;83.18;37.53;;;;;;;;;;341763;153;864943;-58
2022/01/26 01:32:51;;;;;;;87.90;38.43;;;;;;;;;;344965;153;858879;-57
2022/01/26 01:33:46;;;;;;;92.06;40.24;;;;;;;;;;344299;155;857418;-58
2022/01/26 01:34:47;;;;;;;89.21;38.39;;;;;;;;;;346014;153;857685;-57
2022/01/26 01:35:49;;;;;;;87.30;37.57;;;;;;;;;;347095;153;857526;-57
2022/01/26 01:36:53;;;;;;;91.94;39.75;;;;;;;;;;344696;153;864959;-57
2022/01/26 01:37:55;;;;;;;95.17;40.93;;;;;;;;;;344518;153;867637;-57
2022/01/26 01:38:57;;;;;;;98.68;42.24;;;;;;;;;;346189;153;865459;-57
2022/01/26 01:39:59;;;;;;;94.39;40.35;;;;;;;;;;346296;154;857233;-57
2022/01/26 01:41:01;;;;;;;89.50;40.30;;;;;;;;;;346637;152;857232;-57
2022/01/26 01:42:03;;;;;;;85.01;39.01;;;;;;;;;;346870;153;857184;-57
2022/01/26 01:43:05;;;;;;;87.08;39.19;;;;;;;;;;345776;153;857677;-58
2022/01/26 01:44:07;;;;;;;87.01;40.74;;;;;;;;;;346071;152;857195;-58
2022/01/26 01:45:09;;;;;;;91.40;39.99;;;;;;;;;;346244;153;865078;-57
2022/01/26 01:46:11;;;;;;;89.74;40.24;;;;;;;;;;346206;152;857258;-57
2022/01/26 01:47:13;;;;;;;84.56;39.70;;;;;;;;;;344698;153;857539;-57
2022/01/26 01:48:19;;;;;;;83.17;38.84;;;;;;;;;;345730;153;865065;-57
2022/01/26 01:49:19;;;;;;;87.75;40.08;;;;;;;;;;343229;153;863522;-57
2022/01/26 01:50:21;;;;;;;87.51;39.09;;;;;;;;;;346093;153;865287;-58
2022/01/26 01:51:29;;;;;;;89.85;37.39;;;;;;;;;;346119;153;857595;-57
2022/01/26 01:52:27;;;;;;;88.45;38.55;;;;;;;;;;345921;153;866800;-57
2022/01/26 01:53:38;;;;;;;90.55;38.72;;;;;;;;;;345417;153;857223;-58
2022/01/26 01:54:33;;;;;;;88.63;40.03;;;;;;;;;;344192;153;864570;-57
2022/01/26 01:55:34;;;;;;;91.56;41.11;;;;;;;;;;345730;153;857199;-56
2022/01/26 01:56:38;;;;;;;93.05;39.79;;;;;;;;;;339844;157;857816;-57
2022/01/26 01:57:39;;;;;;;90.41;39.79;;;;;;;;;;339183;155;860574;-57
2022/01/26 01:58:41;;;;;;;92.84;40.11;;;;;;;;;;344689;154;859623;-57
2022/01/26 01:59:42;;;;;;;84.97;38.41;;;;;;;;;;344013;154;857248;-57
2022/01/26 02:00:44;;;;;;;90.07;38.89;;;;;;;;;;344363;155;857854;-57
2022/01/26 02:01:46;;;;;;;88.17;38.73;;;;;;;;;;350266;150;857234;-56
2022/01/26 02:02:47;;;;;;;92.69;39.02;;;;;;;;;;355055;149;862667;-59
2022/01/26 02:03:49;;;;;;;93.13;39.75;;;;;;;;;;354660;148;857303;-59
2022/01/26 02:04:50;;;;;;;91.19;38.63;;;;;;;;;;353488;149;857414;-55
2022/01/26 02:05:52;;;;;;;97.99;41.20;;;;;;;;;;354079;149;862640;-56
2022/01/26 02:06:54;;;;;;;92.85;39.81;;;;;;;;;;355807;150;865113;-58
2022/01/26 02:07:55;;;;;;;83.76;36.78;;;;;;;;;;355777;149;858474;-57
2022/01/26 02:08:57;;;;;;;77.32;37.18;;;;;;;;;;356355;149;858300;-57
2022/01/26 02:09:58;;;;;;;78.96;37.01;;;;;;;;;;356867;149;857925;-57
2022/01/26 02:11:00;;;;;;;75.46;36.04;;;;;;;;;;354704;149;860856;-56
2022/01/26 02:12:04;;;;;;;89.41;38.60;;;;;;;;;;355068;149;864866;-57
2022/01/26 02:13:12;;;;;;;96.35;40.54;;;;;;;;;;355016;149;857154;-58
2022/01/26 02:14:16;;;;;;;85.02;38.35;;;;;;;;;;355674;149;865740;-58
2022/01/26 02:15:22;;;;;;;84.89;37.42;;;;;;;;;;356809;150;857319;-58
2022/01/26 02:16:34;;;;;;;83.86;38.39;;;;;;;;;;354411;149;857945;-58
2022/01/26 02:20:29;;;;;;;95.96;37.87;;;;;;;;;;355639;149;858960;-58
2022/01/26 02:21:25;;;;;;;92.64;38.42;;;;;;;;;;352598;150;860277;-58
2022/01/26 02:51:45;;;;;;;93.08;38.13;;;;;;;;;;348840;149;856634;-57
2022/01/26 02:52:46;;;;;;;90.04;37.12;;;;;;;;;;351996;149;857049;-57
2022/01/26 02:54:55;;;;;;;84.59;37.40;;;;;;;;;;327815;161;857406;-57
2022/01/26 02:55:56;;;;;;;84.18;37.44;;;;;;;;;;348008;150;858179;-57
2022/01/26 02:57:25;;;;;;;83.07;37.11;;;;;;;;;;354637;148;859846;-57
2022/01/26 02:58:41;;;;;;;83.12;36.08;;;;;;;;;;354602;149;859226;-57
2022/01/26 03:00:39;;;;;;;81.02;37.55;;;;;;;;;;354667;148;856987;-57
2022/01/26 03:03:52;;;;;;;79.56;34.54;;;;;;;;;;342777;155;864889;-58
2022/01/26 03:04:48;;;;;;;84.21;37.48;;;;;;;;;;349957;148;857354;-57
2022/01/26 03:05:54;;;;;;;88.46;39.72;;;;;;;;;;355703;148;857263;-58
2022/01/26 03:06:59;;;;;;;83.38;36.56;;;;;;;;;;355396;150;858866;-58
2022/01/26 03:08:02;;;;;;;84.77;36.54;;;;;;;;;;356894;148;866390;-58
2022/01/26 03:09:06;;;;;;;75.52;34.92;;;;;;;;;;354259;147;858946;-58
2022/01/26 03:10:09;;;;;;;77.12;31.71;;;;;;;;;;354633;147;857622;-57
2022/01/26 03:11:10;;;;;;;81.84;34.38;;;;;;;;;;356882;147;864813;-56
2022/01/26 03:12:16;;;;;;;80.84;34.57;;;;;;;;;;356443;147;865580;-56
2022/01/26 03:13:26;;;;;;;78.86;35.59;;;;;;;;;;356203;147;857973;-57
2022/01/26 03:14:48;;;;;;;74.72;32.70;;;;;;;;;;357080;147;859941;-57
2022/01/26 03:15:33;;;;;;;72.76;33.82;;;;;;;;;;351040;147;857590;-56
2022/01/26 03:16:40;;;;;;;78.45;34.75;;;;;;;;;;357111;148;857893;-56
2022/01/26 03:17:58;;;;;;;76.19;34.73;;;;;;;;;;349299;151;857205;-56
2022/01/26 03:18:55;;;;;;;70.72;32.71;;;;;;;;;;354486;148;859678;-57
2022/01/26 03:19:50;;;;;;;73.12;32.89;;;;;;;;;;355685;148;857409;-57
2022/01/26 03:20:52;;;;;;;72.97;33.16;;;;;;;;;;357076;148;857361;-59
2022/01/26 03:28:40;;;;;;;76.06;33.19;;;;;;;;;;358411;148;856416;-58
2022/01/26 03:31:06;;;;;;;70.94;29.43;;;;;;;;;;358643;148;857628;-58
2022/01/26 03:34:11;;;;;;;61.68;30.57;;;;;;;;;;357838;147;864751;-58
2022/01/26 03:35:18;;;;;;;76.10;32.13;;;;;;;;;;354240;147;865499;-58
2022/01/26 03:36:19;;;;;;;71.51;31.49;;;;;;;;;;356517;148;857743;-58
2022/01/26 03:37:30;;;;;;;66.35;29.56;;;;;;;;;;354700;147;857400;-58
2022/01/26 03:38:37;;;;;;;71.98;30.78;;;;;;;;;;354829;148;858932;-58
2022/01/26 03:39:29;;;;;;;68.12;31.44;;;;;;;;;;352816;148;866870;-58
2022/01/26 03:40:32;;;;;;;79.69;34.07;;;;;;;;;;355629;147;857216;-58
2022/01/26 03:41:42;;;;;;;71.19;32.74;;;;;;;;;;357908;147;857165;-57
2022/01/26 03:42:41;;;;;;;76.33;35.03;;;;;;;;;;356421;148;858624;-58
2022/01/26 03:43:43;;;;;;;70.73;31.49;;;;;;;;;;356865;148;858082;-58
2022/01/26 03:44:44;;;;;;;65.84;32.09;;;;;;;;;;357933;147;864934;-58
2022/01/26 03:45:46;;;;;;;66.85;29.99;;;;;;;;;;354481;150;857270;-58
2022/01/26 03:46:48;;;;;;;65.86;29.84;;;;;;;;;;357898;147;864936;-57
2022/01/26 03:47:49;;;;;;;73.36;31.93;;;;;;;;;;356984;148;864947;-58
2022/01/26 03:48:51;;;;;;;60.55;29.21;;;;;;;;;;356793;148;857153;-58
2022/01/26 03:49:53;;;;;;;74.17;31.45;;;;;;;;;;355090;148;865026;-58
2022/01/26 03:50:54;;;;;;;60.46;29.13;;;;;;;;;;356058;147;857320;-58
2022/01/26 03:51:56;;;;;;;63.92;28.83;;;;;;;;;;356540;148;857136;-58
2022/01/26 03:52:57;;;;;;;59.66;27.89;;;;;;;;;;356335;148;857677;-58
2022/01/26 03:53:59;;;;;;;66.94;29.16;;;;;;;;;;355690;148;857638;-58
2022/01/26 03:55:01;;;;;;;56.85;26.68;;;;;;;;;;355854;148;857969;-58
2022/01/26 03:56:03;;;;;;;62.21;29.19;;;;;;;;;;357339;148;858936;-56
2022/01/26 03:57:24;;;;;;;64.34;28.53;;;;;;;;;;356567;148;865823;-59
2022/01/26 03:58:26;;;;;;;63.84;27.82;;;;;;;;;;355214;147;865837;-58
2022/01/26 03:59:27;;;;;;;64.61;28.63;;;;;;;;;;353139;150;857126;-56
2022/01/26 04:00:29;;;;;;;58.57;27.13;;;;;;;;;;348214;149;864872;-56
2022/01/26 04:01:31;;;;;;;59.40;28.52;;;;;;;;;;348884;152;862252;-56
2022/01/26 04:02:32;;;;;;;62.91;27.47;;;;;;;;;;343518;153;856558;-56
2022/01/26 04:03:34;;;;;;;57.65;26.49;;;;;;;;;;347426;149;857212;-56
2022/01/26 04:04:44;;;;;;;55.09;26.26;;;;;;;;;;346875;152;858300;-56
2022/01/26 04:05:39;;;;;;;62.09;26.34;;;;;;;;;;349269;153;857599;-59
2022/01/26 04:06:41;;;;;;;57.14;25.92;;;;;;;;;;344397;153;857253;-57
2022/01/26 04:07:44;;;;;;;58.41;25.94;;;;;;;;;;348236;149;864721;-58
2022/01/26 04:08:46;;;;;;;58.57;26.85;;;;;;;;;;347663;152;864857;-57
2022/01/26 04:09:48;;;;;;;51.71;26.08;;;;;;;;;;343922;153;859363;-58
2022/01/26 04:12:10;;;;;;;56.02;24.88;;;;;;;;;;343401;153;858948;-59
2022/01/26 04:13:12;;;;;;;54.46;25.79;;;;;;;;;;341733;154;866042;-59
2022/01/26 04:14:16;;;;;;;56.19;25.97;;;;;;;;;;343159;153;859977;-59
2022/01/26 04:15:26;;;;;;;56.21;27.26;;;;;;;;;;346155;152;858262;-59
2022/01/26 04:16:22;;;;;;;54.99;25.93;;;;;;;;;;345545;150;865822;-59
2022/01/26 04:17:24;;;;;;;58.26;27.65;;;;;;;;;;347501;151;857264;-57
2022/01/26 04:18:33;;;;;;;52.66;22.72;;;;;;;;;;346910;149;857120;-57
2022/01/26 04:19:32;;;;;;;57.58;26.89;;;;;;;;;;348264;153;866074;-57
2022/01/26 04:20:38;;;;;;;59.06;26.56;;;;;;;;;;348550;153;857757;-57
2022/01/26 04:21:50;;;;;;;61.27;27.64;;;;;;;;;;346822;149;863865;-57
2022/01/26 04:22:51;;;;;;;53.35;26.76;;;;;;;;;;347676;151;865484;-57
2022/01/26 04:23:52;;;;;;;51.86;25.21;;;;;;;;;;342588;154;857295;-59
2022/01/26 04:24:52;;;;;;;57.81;25.84;;;;;;;;;;347533;153;857212;-59
2022/01/26 04:25:52;;;;;;;47.74;21.42;;;;;;;;;;348354;152;857298;-57
2022/01/26 04:27:00;;;;;;;50.58;26.19;;;;;;;;;;346844;153;860185;-56
2022/01/26 04:28:02;;;;;;;57.51;27.38;;;;;;;;;;345861;151;858573;-56
2022/01/26 04:29:06;;;;;;;60.91;26.17;;;;;;;;;;347154;153;858568;-57
2022/01/26 04:30:05;;;;;;;57.35;26.79;;;;;;;-2.11;0.00;41491.50;346363;152;857096;-58
2022/01/26 04:31:10;;;;;;;55.95;25.65;;;;;;;;;;347109;153;866876;-57
2022/01/26 04:32:14;;;;;;;59.08;25.68;;;;;;;;;;346769;149;864894;-57
2022/01/26 04:33:15;;;;;;;53.38;25.05;;;;;;;;;;348314;152;867003;-58
2022/01/26 04:34:17;;;;;;;55.27;26.71;;;;;;;;;;341732;153;860660;-57
2022/01/26 04:35:18;;;;;;;43.46;21.13;;;;;;;;;;343704;153;865032;-58
2022/01/26 04:36:31;;;;;;;56.74;26.09;;;;;;;;;;348472;151;857990;-57
2022/01/26 04:38:36;;;;;;;56.21;25.47;;;;;;;;;;347902;153;857634;-57
2022/01/26 04:39:40;;;;;;;54.95;26.50;;;;;;;;;;346621;149;864627;-57
2022/01/26 04:40:43;;;;;;;56.56;26.94;;;;;;;;;;345832;153;857091;-57
2022/01/26 04:41:48;;;;;;;48.89;24.62;;;;;;;;;;347877;153;864845;-58
2022/01/26 04:42:58;;;;;;;45.31;22.17;;;;;;;;;;341281;153;859776;-57
2022/01/26 04:44:00;;;;;;;54.37;23.47;;;;;;;;;;346796;149;864769;-56
2022/01/26 04:45:03;;;;;;;56.77;27.73;;;;;;;;;;347250;151;858597;-56
2022/01/26 04:46:01;;;;;;;50.64;23.85;;;;;;;;;;346050;151;858589;-57
2022/01/26 04:47:03;;;;;;;54.54;23.51;;;;;;;;;;347867;152;859000;-56
2022/01/26 04:48:05;;;;;;;60.15;26.96;;;;;;;;;;345715;153;865062;-57
2022/01/26 04:49:06;;;;;;;54.76;24.86;;;;;;;;;;341761;153;865881;-57
2022/01/26 04:50:09;;;;;;;62.03;26.78;;;;;;;;;;348245;149;866402;-57
2022/01/26 04:51:11;;;;;;;58.31;26.88;;;;;;;;;;346896;153;858964;-57
2022/01/26 04:52:12;;;;;;;50.24;24.24;;;;;;;;;;346529;151;857347;-59
2022/01/26 04:53:14;;;;;;;46.11;19.98;;;;;;;;;;347190;151;860126;-56
2022/01/26 04:54:15;;;;;;;49.98;23.67;;;;;;;;;;348473;152;857821;-56
2022/01/26 04:55:17;;;;;;;41.31;21.04;;;;;;;;;;341396;153;860118;-57
2022/01/26 04:56:20;;;;;;;55.17;24.24;;;;;;;;;;340522;153;865106;-57
2022/01/26 04:57:21;;;;;;;49.69;22.34;;;;;;;;;;342611;154;864814;-57
2022/01/26 04:58:23;;;;;;;47.35;21.41;;;;;;;;;;340065;155;862533;-56
2022/01/26 04:59:24;;;;;;;54.19;23.96;;;;;;;;;;343865;154;865426;-56
2022/01/26 05:00:26;;;;;;;56.64;25.16;;;;;;;;;;344266;152;865102;-56
2022/01/26 05:01:28;;;;;;;51.39;22.69;;;;;;;;;;349824;152;865540;-56
2022/01/26 05:02:30;;;;;;;56.51;26.67;;;;;;;;;;344072;154;858564;-56
2022/01/26 05:03:32;;;;;;;49.60;24.33;;;;;;;;;;344923;152;858426;-56
2022/01/26 05:04:33;;;;;;;57.89;26.09;;;;;;;;;;344812;152;858106;-57
2022/01/26 05:05:35;;;;;;;41.21;19.51;;;;;;;;;;346677;152;863790;-57
2022/01/26 05:06:36;;;;;;;51.35;24.12;;;;;;;;;;343938;154;857370;-57
2022/01/26 05:07:38;;;;;;;58.31;26.01;;;;;;;;;;343830;152;856576;-55
2022/01/26 05:08:39;;;;;;;60.69;27.73;;;;;;;;;;345100;152;857285;-56
2022/01/26 05:09:41;;;;;;;46.66;20.81;;;;;;;;;;344521;154;857340;-55
2022/01/26 05:10:44;;;;;;;54.29;24.81;;;;;;;;;;343213;154;865037;-57
2022/01/26 05:11:48;;;;;;;56.21;25.33;;;;;;;;;;344474;152;858568;-55
2022/01/26 05:12:49;;;;;;;50.44;24.11;;;;;;;;;;344226;154;856616;-56
2022/01/26 05:13:53;;;;;;;57.33;26.36;;;;;;;;;;344172;152;857287;-56
2022/01/26 05:14:54;;;;;;;52.79;23.67;;;;;;;;;;343948;154;865860;-56
2022/01/26 05:15:56;;;;;;;54.54;24.81;;;;;;;;;;341135;154;857174;-56
2022/01/26 05:16:57;;;;;;;52.32;24.67;;;;;;;;;;337735;155;866963;-55
2022/01/26 05:17:59;;;;;;;52.73;24.86;;;;;;;;;;337895;155;865787;-57
2022/01/26 05:19:01;;;;;;;43.55;19.96;;;;;;;;;;339575;157;862083;-57
2022/01/26 05:20:03;;;;;;;58.19;23.83;;;;;;;;;;341330;157;861612;-60
2022/01/26 05:21:05;;;;;;;53.65;25.18;;;;;;;;;;337943;155;860891;-57
2022/01/26 05:22:07;;;;;;;60.23;25.96;;;;;;;;;;338325;154;864967;-61
2022/01/26 05:23:09;;;;;;;58.71;26.65;;;;;;;;;;339436;157;859762;-58
2022/01/26 05:24:11;;;;;;;35.69;17.26;;;;;;;;;;338683;157;865380;-63
2022/01/26 05:25:12;;;;;;;55.03;22.92;;;;;;;;;;337747;156;859785;-62
2022/01/26 05:26:16;;;;;;;52.84;22.70;;;;;;;;;;337125;154;866650;-59
2022/01/26 05:27:17;;;;;;;54.69;25.25;;;;;;;;;;339477;157;857307;-57
2022/01/26 05:28:19;;;;;;;55.35;24.31;;;;;;;;;;338014;155;857449;-60
2022/01/26 05:29:21;;;;;;;56.51;24.96;;;;;;;;;;337227;155;859164;-55
2022/01/26 05:30:27;;;;;;;53.63;24.18;;;;;;;;;;337953;157;858129;-56
2022/01/26 05:31:28;;;;;;;53.09;22.86;;;;;;;;;;337572;157;864119;-59
2022/01/26 05:32:30;;;;;;;44.36;22.70;;;;;;;;;;337768;154;864010;-57
2022/01/26 05:33:31;;;;;;;54.68;25.06;;;;;;;;;;334478;155;864986;-57
2022/01/26 05:34:33;;;;;;;45.31;21.19;;;;;;;;;;344325;154;864414;-57
2022/01/26 05:35:35;;;;;;;55.49;23.83;;;;;;;;;;343739;152;859490;-61
2022/01/26 05:36:36;;;;;;;49.82;22.57;;;;;;;;;;343597;154;866706;-58
2022/01/26 05:37:39;;;;;;;54.23;24.65;;;;;;;;;;346322;154;858857;-56
2022/01/26 05:38:40;;;;;;;48.53;21.23;;;;;;;;;;344713;154;858949;-56
2022/01/26 05:39:42;;;;;;;37.79;19.08;;;;;;;;;;344898;152;865116;-57
2022/01/26 05:40:44;;;;;;;57.00;25.18;;;;;;;;;;346490;154;865532;-57
2022/01/26 05:41:45;;;;;;;57.79;25.94;;;;;;;;;;343451;154;859280;-57
2022/01/26 05:42:47;;;;;;;57.36;25.44;;;;;;;;;;344346;152;863097;-57
2022/01/26 05:43:49;;;;;;;54.65;24.65;;;;;;;;;;346172;154;864745;-56
2022/01/26 05:44:51;;;;;;;57.58;25.96;;;;;;;;;;345870;152;857418;-59
2022/01/26 05:45:56;;;;;;;52.08;20.43;;;;;;;;;;343862;154;866500;-59
2022/01/26 05:46:56;;;;;;;46.72;21.02;;;;;;;;;;345008;152;857329;-57
2022/01/26 05:48:02;;;;;;;52.29;23.43;;;;;;;;;;344685;154;859817;-58
2022/01/26 05:49:01;;;;;;;55.86;25.03;;;;;;;;;;343560;152;857189;-58
2022/01/26 05:50:04;;;;;;;56.01;25.16;;;;;;;;;;345851;152;859319;-58
2022/01/26 05:51:07;;;;;;;48.99;22.89;;;;;;;;;;344973;154;857418;-58
2022/01/26 05:52:09;;;;;;;54.31;24.48;;;;;;;;;;344399;154;857269;-58
2022/01/26 05:53:10;;;;;;;55.88;25.02;;;;;;;;;;345122;154;859026;-60
2022/01/26 05:54:13;;;;;;;50.35;23.82;;;;;;;;;;347515;154;857280;-57
2022/01/26 05:55:14;;;;;;;52.99;22.92;;;;;;;;;;347245;154;859947;-59
2022/01/26 05:56:17;;;;;;;59.91;25.83;;;;;;;;;;345234;152;859791;-61
2022/01/26 05:57:18;;;;;;;55.89;26.24;;;;;;;;;;344347;152;857112;-61
2022/01/26 05:58:20;;;;;;;55.36;24.96;;;;;;;;;;346262;154;865273;-61
2022/01/26 05:59:21;;;;;;;55.43;25.41;;;;;;;;;;345080;151;857339;-61
2022/01/26 06:00:23;;;;;;;55.55;25.65;;;;;;;;;;344879;152;856729;-60
2022/01/26 06:01:25;;;;;;;46.20;20.10;;;;;;;;;;344901;154;857165;-61
2022/01/26 06:02:27;;;;;;;44.99;20.71;;;;;;;;;;345776;154;864062;-61
2022/01/26 06:03:30;;;;;;;51.24;24.85;;;;;;;;;;344381;152;856037;-60
2022/01/26 06:04:33;;;;;;;52.84;22.86;;;;;;;;;;344780;152;856081;-61
2022/01/26 06:05:34;;;;;;;52.26;26.86;;;;;;;;;;344338;155;856342;-61
2022/01/26 06:06:36;;;;;;;47.79;22.98;;;;;;;;;;344772;154;863703;-61
2022/01/26 06:07:37;;;;;;;52.19;24.07;;;;;;;;;;344847;152;864519;-61
2022/01/26 06:08:39;;;;;;;56.76;26.42;;;;;;;;;;344115;154;857423;-62
2022/01/26 06:09:40;;;;;;;48.80;24.54;;;;;;;;;;343812;155;858270;-62
2022/01/26 06:10:42;;;;;;;46.19;18.31;;;;;;;;;;345877;152;856066;-61
2022/01/26 06:11:43;;;;;;;51.46;23.03;;;;;;;;;;345613;154;856240;-61
2022/01/26 06:12:45;;;;;;;40.96;19.68;;;;;;;;;;346010;154;858608;-61
2022/01/26 06:13:47;;;;;;;51.27;23.96;;;;;;;;;;344480;152;856813;-61
2022/01/26 06:14:48;;;;;;;51.04;24.34;;;;;;;;;;345416;152;863796;-61
2022/01/26 06:15:50;;;;;;;48.31;23.50;;;;;;;;;;345328;154;863907;-61
2022/01/26 06:16:52;;;;;;;58.86;25.88;;;;;;;;;;344996;154;856102;-62
2022/01/26 06:17:53;;;;;;;48.87;23.55;;;;;;;;;;345405;152;856081;-62
2022/01/26 06:18:55;;;;;;;47.99;22.08;;;;;;;;;;345053;154;856311;-61
2022/01/26 06:22:04;;;;;;;42.72;19.94;;;;;;;-2.64;78.48;99974.53;374265;142;881506;-59
2022/01/26 06:23:06;;;;;;;47.41;20.47;;;;;;;-2.71;78.44;99982.66;366161;144;857650;-60
2022/01/26 06:24:08;;;;;;;40.75;18.90;;;;;;;-2.68;78.44;99977.73;368250;144;858783;-60
2022/01/26 06:25:09;;;;;;;37.19;19.01;;;;;;;-2.65;78.31;99980.40;366405;144;857239;-60
2022/01/26 06:26:11;;;;;;;43.19;18.83;;;;;;;-2.59;78.22;99970.53;367137;144;864766;-60
2022/01/26 06:27:13;;;;;;;39.53;18.77;;;;;;;-2.50;78.15;99973.48;370538;144;857209;-60
2022/01/26 06:28:16;;;;;;;33.80;16.54;;;;;;;-2.39;77.91;99979.05;367635;144;864908;-60
2022/01/26 06:29:18;;;;;;;37.36;18.87;;;;;;;-2.28;77.60;99974.44;367147;144;864582;-60
2022/01/26 06:30:20;;;;;;;37.05;18.33;;;;;;;;;;366848;144;856878;-60
2022/01/26 06:31:26;;;;;;;37.46;19.08;;;;;;;;;;367757;144;863330;-60
2022/01/26 06:32:25;;;;;;;33.64;17.48;;;;;;;;;;369092;144;858301;-60
2022/01/26 06:33:27;;;;;;;43.32;21.46;;;;;;;;;;366233;144;857084;-60
2022/01/26 06:34:29;;;;;;;32.69;15.97;;;;;;;;;;367533;144;856475;-60
2022/01/26 06:35:31;;;;;;;40.05;20.29;;;;;;;;;;366469;144;856009;-60
2022/01/26 06:36:32;;;;;;;39.80;19.03;;;;;;;;;;365976;144;863948;-61
2022/01/26 06:37:34;;;;;;;44.36;20.45;;;;;;;;;;367000;144;863739;-59
2022/01/26 06:38:35;;;;;;;47.37;22.06;;;;;;;;;;367549;144;864667;-60
2022/01/26 06:39:37;;;;;;;35.23;17.43;;;;;;;;;;367047;144;856601;-61
2022/01/26 06:40:38;;;;;;;40.25;18.81;;;;;;;;;;366120;144;856544;-61
2022/01/26 06:41:48;;;;;;;42.48;21.31;;;;;;;;;;367030;144;863879;-61
2022/01/26 06:42:56;;;;;;;47.03;22.94;;;;;;;;;;365211;144;856468;-60
2022/01/26 06:44:03;;;;;;;49.42;23.95;;;;;;;;;;366958;144;863819;-60
2022/01/26 06:46:05;;;;;;;55.05;24.94;;;;;;;;;;366609;144;856402;-61
2022/01/26 06:48:43;;;;;;;51.32;23.38;;;;;;;;;;365874;144;856611;-60
2022/01/26 06:50:26;;;;;;;49.27;20.73;;;;;;;;;;365877;144;856377;-61
2022/01/26 06:51:28;;;;;;;51.85;21.65;;;;;;;;;;368475;144;856477;-60
2022/01/26 06:52:30;;;;;;;55.76;24.54;;;;;;;;;;370665;144;856071;-60
2022/01/26 06:53:31;;;;;;;51.65;21.23;;;;;;;;;;367344;144;864202;-60
2022/01/26 06:54:33;;;;;;;54.73;24.68;;;;;;;;;;366348;144;856224;-60
2022/01/26 06:55:35;;;;;;;46.85;22.00;;;;;;;;;;372286;144;856499;-61
2022/01/26 06:56:37;;;;;;;46.73;22.18;;;;;;;;;;366363;144;863823;-60
2022/01/26 06:57:39;;;;;;;38.63;17.99;;;;;;;;;;366196;144;856087;-60
2022/01/26 06:58:41;;;;;;;51.49;21.95;;;;;;;;;;365952;147;863868;-61
2022/01/26 06:59:42;;;;;;;50.62;24.35;;;;;;;;;;365936;144;856679;-61
2022/01/26 07:02:28;;;;;;;50.34;20.78;;;;;;;-2.24;76.91;100003.37;373066;142;881344;-60
2022/01/26 07:03:30;;;;;;;40.29;19.05;;;;;;;-2.32;76.78;100005.55;366787;144;856534;-61
2022/01/26 07:04:32;;;;;;;41.50;20.03;;;;;;;-2.33;76.80;100019.02;367377;144;856013;-60
2022/01/26 07:05:33;;;;;;;35.86;17.49;;;;;;;-2.33;76.85;100016.48;368558;144;856059;-60
2022/01/26 07:06:36;;;;;;;35.24;16.98;;;;;;;-2.28;76.83;100022.63;367166;144;863457;-59
2022/01/26 07:07:38;;;;;;;32.74;16.19;;;;;;;-2.24;76.41;100016.90;368406;144;864204;-60
2022/01/26 07:08:39;;;;;;;38.87;18.82;;;;;;;-2.27;76.53;100020.98;367685;144;856128;-60
2022/01/26 07:09:41;;;;;;;42.01;19.46;;;;;;;-2.30;76.48;100015.77;366276;144;856517;-61
2022/01/26 07:10:45;;;;;;;37.73;18.30;;;;;;;-2.24;76.42;100018.59;365991;144;863917;-61
2022/01/26 07:11:46;;;;;;;36.83;17.75;;;;;;;-2.13;76.47;100021.58;368071;144;856226;-61
2022/01/26 07:12:48;;;;;;;35.28;17.51;;;;;;;-2.07;76.10;100024.42;368549;144;856316;-61
2022/01/26 07:13:58;;;;;;;33.33;17.44;;;;;;;-1.95;76.02;100019.00;368683;144;856463;-61
2022/01/26 07:21:28;;;;;;;35.69;17.21;;;;;;;;;;365628;144;864640;-60